sensor_id;sensor_type;location;lat;lon;timestamp;P1;durP1;ratioP1;P2;durP2;ratioP2
73776;SDS011;62088;50.240;2.696;2022-10-17T00:00:38;10.38;;;6.40;;
73776;SDS011;62088;50.240;2.696;2022-10-17T00:03:06;8.88;;;6.30;;
73776;SDS011;62088;50.240;2.696;2022-10-17T00:05:33;8.80;;;6.10;;
73776;SDS011;62088;50.240;2.696;2022-10-17T00:08:04;8.23;;;6.40;;
73776;SDS011;62088;50.240;2.696;2022-10-17T00:10:31;14.98;;;5.90;;
73776;SDS011;62088;50.240;2.696;2022-10-17T00:12:58;11.25;;;6.72;;
73776;SDS011;62088;50.240;2.696;2022-10-17T00:15:25;7.13;;;5.90;;
73776;SDS011;62088;50.240;2.696;2022-10-17T00:17:52;9.00;;;6.03;;
73776;SDS011;62088;50.240;2.696;2022-10-17T00:20:19;8.82;;;6.63;;
73776;SDS011;62088;50.240;2.696;2022-10-17T00:22:46;10.50;;;6.53;;
73776;SDS011;62088;50.240;2.696;2022-10-17T00:25:13;11.18;;;6.72;;
73776;SDS011;62088;50.240;2.696;2022-10-17T00:27:40;10.85;;;6.40;;
73776;SDS011;62088;50.240;2.696;2022-10-17T00:30:10;9.63;;;6.80;;
73776;SDS011;62088;50.240;2.696;2022-10-17T00:32:39;8.48;;;6.30;;
73776;SDS011;62088;50.240;2.696;2022-10-17T00:35:07;11.70;;;6.95;;
73776;SDS011;62088;50.240;2.696;2022-10-17T00:37:34;8.20;;;5.97;;
73776;SDS011;62088;50.240;2.696;2022-10-17T00:40:02;9.18;;;6.47;;
73776;SDS011;62088;50.240;2.696;2022-10-17T00:42:29;13.93;;;6.50;;
73776;SDS011;62088;50.240;2.696;2022-10-17T00:45:19;8.05;;;6.60;;
73776;SDS011;62088;50.240;2.696;2022-10-17T00:47:58;8.35;;;6.32;;
73776;SDS011;62088;50.240;2.696;2022-10-17T00:50:29;10.02;;;6.90;;
73776;SDS011;62088;50.240;2.696;2022-10-17T00:52:57;13.25;;;6.75;;
73776;SDS011;62088;50.240;2.696;2022-10-17T00:55:29;11.52;;;6.43;;
73776;SDS011;62088;50.240;2.696;2022-10-17T00:57:59;13.00;;;7.10;;
73776;SDS011;62088;50.240;2.696;2022-10-17T01:00:29;11.57;;;6.65;;
73776;SDS011;62088;50.240;2.696;2022-10-17T01:02:56;9.68;;;6.50;;
73776;SDS011;62088;50.240;2.696;2022-10-17T01:05:23;14.23;;;6.80;;
73776;SDS011;62088;50.240;2.696;2022-10-17T01:07:51;12.95;;;6.80;;
73776;SDS011;62088;50.240;2.696;2022-10-17T01:10:19;9.65;;;6.53;;
73776;SDS011;62088;50.240;2.696;2022-10-17T01:12:54;10.45;;;6.70;;
73776;SDS011;62088;50.240;2.696;2022-10-17T01:35:26;9.07;;;5.90;;
73776;SDS011;62088;50.240;2.696;2022-10-17T01:38:09;8.75;;;6.18;;
73776;SDS011;62088;50.240;2.696;2022-10-17T01:46:28;9.52;;;6.10;;
73776;SDS011;62088;50.240;2.696;2022-10-17T01:49:03;13.07;;;6.32;;
73776;SDS011;62088;50.240;2.696;2022-10-17T01:51:40;12.80;;;6.35;;
73776;SDS011;62088;50.240;2.696;2022-10-17T01:54:17;8.98;;;6.00;;
73776;SDS011;62088;50.240;2.696;2022-10-17T01:56:52;12.52;;;6.28;;
73776;SDS011;62088;50.240;2.696;2022-10-17T01:59:43;10.18;;;5.57;;
73776;SDS011;62088;50.240;2.696;2022-10-17T02:02:14;8.88;;;5.93;;
73776;SDS011;62088;50.240;2.696;2022-10-17T02:04:44;14.60;;;6.28;;
73776;SDS011;62088;50.240;2.696;2022-10-17T02:07:13;10.82;;;5.80;;
73776;SDS011;62088;50.240;2.696;2022-10-17T02:09:40;13.18;;;5.70;;
73776;SDS011;62088;50.240;2.696;2022-10-17T02:15:09;9.27;;;5.90;;
73776;SDS011;62088;50.240;2.696;2022-10-17T02:20:34;10.18;;;5.95;;
73776;SDS011;62088;50.240;2.696;2022-10-17T02:23:23;8.97;;;6.00;;
73776;SDS011;62088;50.240;2.696;2022-10-17T02:26:18;8.75;;;5.80;;
73776;SDS011;62088;50.240;2.696;2022-10-17T02:31:29;12.68;;;5.85;;
73776;SDS011;62088;50.240;2.696;2022-10-17T02:34:16;7.22;;;5.55;;
73776;SDS011;62088;50.240;2.696;2022-10-17T02:36:53;9.80;;;5.20;;
73776;SDS011;62088;50.240;2.696;2022-10-17T02:39:24;9.05;;;6.00;;
73776;SDS011;62088;50.240;2.696;2022-10-17T02:41:55;9.13;;;6.03;;
73776;SDS011;62088;50.240;2.696;2022-10-17T02:44:25;10.85;;;5.68;;
73776;SDS011;62088;50.240;2.696;2022-10-17T02:46:56;9.63;;;5.82;;
73776;SDS011;62088;50.240;2.696;2022-10-17T02:49:30;10.75;;;6.20;;
73776;SDS011;62088;50.240;2.696;2022-10-17T02:54:45;8.88;;;5.50;;
73776;SDS011;62088;50.240;2.696;2022-10-17T03:00:00;9.05;;;5.53;;
73776;SDS011;62088;50.240;2.696;2022-10-17T03:02:36;10.82;;;6.55;;
73776;SDS011;62088;50.240;2.696;2022-10-17T03:05:08;11.45;;;6.28;;
73776;SDS011;62088;50.240;2.696;2022-10-17T03:07:36;8.82;;;6.13;;
73776;SDS011;62088;50.240;2.696;2022-10-17T03:10:04;8.45;;;5.78;;
73776;SDS011;62088;50.240;2.696;2022-10-17T03:12:31;11.10;;;6.20;;
73776;SDS011;62088;50.240;2.696;2022-10-17T03:14:58;9.05;;;5.85;;
73776;SDS011;62088;50.240;2.696;2022-10-17T03:17:26;16.00;;;6.30;;
73776;SDS011;62088;50.240;2.696;2022-10-17T03:19:53;10.25;;;6.13;;
73776;SDS011;62088;50.240;2.696;2022-10-17T03:22:20;13.73;;;6.05;;
73776;SDS011;62088;50.240;2.696;2022-10-17T03:24:47;11.10;;;6.05;;
73776;SDS011;62088;50.240;2.696;2022-10-17T03:27:14;11.90;;;6.28;;
73776;SDS011;62088;50.240;2.696;2022-10-17T03:29:43;11.82;;;6.47;;
73776;SDS011;62088;50.240;2.696;2022-10-17T03:32:12;10.50;;;6.78;;
73776;SDS011;62088;50.240;2.696;2022-10-17T03:34:39;13.82;;;6.18;;
73776;SDS011;62088;50.240;2.696;2022-10-17T03:37:07;12.43;;;6.47;;
73776;SDS011;62088;50.240;2.696;2022-10-17T03:39:36;11.20;;;5.63;;
73776;SDS011;62088;50.240;2.696;2022-10-17T03:42:04;11.95;;;6.32;;
73776;SDS011;62088;50.240;2.696;2022-10-17T03:44:31;8.55;;;5.93;;
73776;SDS011;62088;50.240;2.696;2022-10-17T03:46:58;11.85;;;6.30;;
73776;SDS011;62088;50.240;2.696;2022-10-17T03:49:25;12.65;;;6.82;;
73776;SDS011;62088;50.240;2.696;2022-10-17T03:51:53;9.68;;;5.93;;
73776;SDS011;62088;50.240;2.696;2022-10-17T03:54:20;11.23;;;6.22;;
73776;SDS011;62088;50.240;2.696;2022-10-17T03:56:47;13.30;;;7.03;;
73776;SDS011;62088;50.240;2.696;2022-10-17T03:59:16;12.80;;;6.88;;
73776;SDS011;62088;50.240;2.696;2022-10-17T04:01:52;11.68;;;6.40;;
73776;SDS011;62088;50.240;2.696;2022-10-17T04:04:19;9.25;;;6.30;;
73776;SDS011;62088;50.240;2.696;2022-10-17T04:06:46;12.73;;;6.63;;
73776;SDS011;62088;50.240;2.696;2022-10-17T04:09:13;9.57;;;6.50;;
73776;SDS011;62088;50.240;2.696;2022-10-17T04:11:53;14.45;;;6.88;;
73776;SDS011;62088;50.240;2.696;2022-10-17T04:14:21;11.68;;;6.78;;
73776;SDS011;62088;50.240;2.696;2022-10-17T04:16:49;13.07;;;7.40;;
73776;SDS011;62088;50.240;2.696;2022-10-17T04:19:19;8.55;;;6.38;;
73776;SDS011;62088;50.240;2.696;2022-10-17T04:21:46;11.27;;;6.93;;
73776;SDS011;62088;50.240;2.696;2022-10-17T04:24:14;9.75;;;6.80;;
73776;SDS011;62088;50.240;2.696;2022-10-17T04:26:44;13.63;;;7.10;;
73776;SDS011;62088;50.240;2.696;2022-10-17T04:29:14;11.20;;;6.38;;
73776;SDS011;62088;50.240;2.696;2022-10-17T04:31:43;9.38;;;6.50;;
73776;SDS011;62088;50.240;2.696;2022-10-17T04:34:26;14.73;;;6.80;;
73776;SDS011;62088;50.240;2.696;2022-10-17T04:36:53;10.60;;;7.03;;
73776;SDS011;62088;50.240;2.696;2022-10-17T04:39:20;15.30;;;6.97;;
73776;SDS011;62088;50.240;2.696;2022-10-17T04:41:47;13.25;;;6.97;;
73776;SDS011;62088;50.240;2.696;2022-10-17T04:44:14;11.75;;;7.13;;
73776;SDS011;62088;50.240;2.696;2022-10-17T04:46:47;10.07;;;6.23;;
73776;SDS011;62088;50.240;2.696;2022-10-17T04:49:15;12.25;;;6.30;;
73776;SDS011;62088;50.240;2.696;2022-10-17T04:51:45;12.98;;;6.82;;
73776;SDS011;62088;50.240;2.696;2022-10-17T04:54:17;13.40;;;7.60;;
73776;SDS011;62088;50.240;2.696;2022-10-17T04:56:48;12.70;;;7.32;;
73776;SDS011;62088;50.240;2.696;2022-10-17T04:59:15;16.75;;;7.07;;
73776;SDS011;62088;50.240;2.696;2022-10-17T05:01:43;14.57;;;7.93;;
73776;SDS011;62088;50.240;2.696;2022-10-17T05:04:12;16.20;;;7.50;;
73776;SDS011;62088;50.240;2.696;2022-10-17T05:06:39;19.58;;;7.55;;
73776;SDS011;62088;50.240;2.696;2022-10-17T05:09:26;16.98;;;7.95;;
73776;SDS011;62088;50.240;2.696;2022-10-17T05:11:53;20.10;;;8.13;;
73776;SDS011;62088;50.240;2.696;2022-10-17T05:14:20;20.25;;;8.70;;
73776;SDS011;62088;50.240;2.696;2022-10-17T05:16:48;26.85;;;9.80;;
73776;SDS011;62088;50.240;2.696;2022-10-17T05:19:15;21.20;;;10.30;;
73776;SDS011;62088;50.240;2.696;2022-10-17T05:21:47;18.90;;;9.35;;
73776;SDS011;62088;50.240;2.696;2022-10-17T05:24:14;19.60;;;9.80;;
73776;SDS011;62088;50.240;2.696;2022-10-17T05:26:41;18.95;;;9.30;;
73776;SDS011;62088;50.240;2.696;2022-10-17T05:29:08;22.08;;;9.68;;
73776;SDS011;62088;50.240;2.696;2022-10-17T05:31:40;16.90;;;8.32;;
73776;SDS011;62088;50.240;2.696;2022-10-17T05:34:07;14.88;;;8.43;;
73776;SDS011;62088;50.240;2.696;2022-10-17T05:36:39;17.75;;;8.30;;
73776;SDS011;62088;50.240;2.696;2022-10-17T05:39:07;16.77;;;7.40;;
73776;SDS011;62088;50.240;2.696;2022-10-17T05:41:35;13.55;;;7.78;;
73776;SDS011;62088;50.240;2.696;2022-10-17T05:44:03;12.48;;;7.75;;
73776;SDS011;62088;50.240;2.696;2022-10-17T05:46:40;14.15;;;7.38;;
73776;SDS011;62088;50.240;2.696;2022-10-17T05:49:08;22.88;;;8.70;;
73776;SDS011;62088;50.240;2.696;2022-10-17T05:51:56;17.95;;;7.40;;
73776;SDS011;62088;50.240;2.696;2022-10-17T05:54:24;12.27;;;6.88;;
73776;SDS011;62088;50.240;2.696;2022-10-17T05:56:51;16.85;;;7.75;;
73776;SDS011;62088;50.240;2.696;2022-10-17T05:59:25;12.20;;;6.88;;
73776;SDS011;62088;50.240;2.696;2022-10-17T06:02:01;13.35;;;6.45;;
73776;SDS011;62088;50.240;2.696;2022-10-17T06:04:29;11.30;;;5.90;;
73776;SDS011;62088;50.240;2.696;2022-10-17T06:06:56;17.90;;;6.05;;
73776;SDS011;62088;50.240;2.696;2022-10-17T06:09:23;15.20;;;6.63;;
73776;SDS011;62088;50.240;2.696;2022-10-17T06:11:52;16.88;;;5.53;;
73776;SDS011;62088;50.240;2.696;2022-10-17T06:14:19;17.35;;;6.18;;
73776;SDS011;62088;50.240;2.696;2022-10-17T06:16:50;14.40;;;5.75;;
73776;SDS011;62088;50.240;2.696;2022-10-17T06:19:17;12.77;;;5.40;;
73776;SDS011;62088;50.240;2.696;2022-10-17T06:21:45;14.48;;;5.75;;
73776;SDS011;62088;50.240;2.696;2022-10-17T06:24:17;11.63;;;5.90;;
73776;SDS011;62088;50.240;2.696;2022-10-17T06:26:45;11.40;;;6.40;;
73776;SDS011;62088;50.240;2.696;2022-10-17T06:29:14;11.43;;;6.45;;
73776;SDS011;62088;50.240;2.696;2022-10-17T06:31:45;10.68;;;5.70;;
73776;SDS011;62088;50.240;2.696;2022-10-17T06:34:12;10.90;;;5.18;;
73776;SDS011;62088;50.240;2.696;2022-10-17T06:36:40;13.32;;;5.57;;
73776;SDS011;62088;50.240;2.696;2022-10-17T06:39:08;9.45;;;5.07;;
73776;SDS011;62088;50.240;2.696;2022-10-17T06:41:49;10.25;;;5.63;;
73776;SDS011;62088;50.240;2.696;2022-10-17T06:44:18;12.23;;;5.95;;
73776;SDS011;62088;50.240;2.696;2022-10-17T06:47:03;14.60;;;6.00;;
73776;SDS011;62088;50.240;2.696;2022-10-17T06:49:31;9.48;;;5.90;;
73776;SDS011;62088;50.240;2.696;2022-10-17T06:52:14;8.20;;;5.40;;
73776;SDS011;62088;50.240;2.696;2022-10-17T06:54:55;13.48;;;5.95;;
73776;SDS011;62088;50.240;2.696;2022-10-17T06:57:30;13.23;;;5.70;;
73776;SDS011;62088;50.240;2.696;2022-10-17T07:00:16;14.77;;;5.57;;
73776;SDS011;62088;50.240;2.696;2022-10-17T07:02:48;8.75;;;5.18;;
73776;SDS011;62088;50.240;2.696;2022-10-17T07:05:15;9.80;;;5.80;;
73776;SDS011;62088;50.240;2.696;2022-10-17T07:07:44;12.43;;;6.05;;
73776;SDS011;62088;50.240;2.696;2022-10-17T07:10:16;10.18;;;5.50;;
73776;SDS011;62088;50.240;2.696;2022-10-17T07:12:43;10.93;;;5.60;;
73776;SDS011;62088;50.240;2.696;2022-10-17T07:15:11;10.93;;;6.13;;
73776;SDS011;62088;50.240;2.696;2022-10-17T07:17:38;9.90;;;5.90;;
73776;SDS011;62088;50.240;2.696;2022-10-17T07:20:05;14.25;;;6.25;;
73776;SDS011;62088;50.240;2.696;2022-10-17T07:22:35;12.88;;;6.47;;
73776;SDS011;62088;50.240;2.696;2022-10-17T07:25:02;10.60;;;5.85;;
73776;SDS011;62088;50.240;2.696;2022-10-17T07:27:35;10.90;;;6.05;;
73776;SDS011;62088;50.240;2.696;2022-10-17T07:30:03;10.63;;;5.78;;
73776;SDS011;62088;50.240;2.696;2022-10-17T07:32:36;11.60;;;5.88;;
73776;SDS011;62088;50.240;2.696;2022-10-17T07:35:04;11.15;;;5.88;;
73776;SDS011;62088;50.240;2.696;2022-10-17T07:37:31;10.13;;;6.03;;
73776;SDS011;62088;50.240;2.696;2022-10-17T07:39:59;11.02;;;6.03;;
73776;SDS011;62088;50.240;2.696;2022-10-17T07:42:26;9.73;;;6.25;;
73776;SDS011;62088;50.240;2.696;2022-10-17T07:44:53;11.43;;;6.40;;
73776;SDS011;62088;50.240;2.696;2022-10-17T07:47:21;10.70;;;6.32;;
73776;SDS011;62088;50.240;2.696;2022-10-17T07:49:50;9.98;;;5.97;;
73776;SDS011;62088;50.240;2.696;2022-10-17T07:52:17;13.60;;;6.78;;
73776;SDS011;62088;50.240;2.696;2022-10-17T07:54:44;16.15;;;7.57;;
73776;SDS011;62088;50.240;2.696;2022-10-17T07:57:11;11.13;;;6.95;;
73776;SDS011;62088;50.240;2.696;2022-10-17T07:59:38;11.18;;;7.00;;
73776;SDS011;62088;50.240;2.696;2022-10-17T08:02:05;14.15;;;7.75;;
73776;SDS011;62088;50.240;2.696;2022-10-17T08:04:33;13.27;;;7.05;;
73776;SDS011;62088;50.240;2.696;2022-10-17T08:07:01;12.88;;;8.35;;
73776;SDS011;62088;50.240;2.696;2022-10-17T08:09:46;10.50;;;7.22;;
73776;SDS011;62088;50.240;2.696;2022-10-17T08:12:13;11.73;;;6.95;;
73776;SDS011;62088;50.240;2.696;2022-10-17T08:14:40;15.13;;;7.13;;
73776;SDS011;62088;50.240;2.696;2022-10-17T08:17:08;14.77;;;6.90;;
73776;SDS011;62088;50.240;2.696;2022-10-17T08:19:38;10.55;;;5.38;;
73776;SDS011;62088;50.240;2.696;2022-10-17T08:22:05;10.07;;;6.18;;
73776;SDS011;62088;50.240;2.696;2022-10-17T08:24:33;10.15;;;6.32;;
73776;SDS011;62088;50.240;2.696;2022-10-17T08:27:00;10.10;;;5.63;;
73776;SDS011;62088;50.240;2.696;2022-10-17T08:29:27;13.15;;;5.55;;
73776;SDS011;62088;50.240;2.696;2022-10-17T08:31:54;12.70;;;5.60;;
73776;SDS011;62088;50.240;2.696;2022-10-17T08:34:26;12.07;;;5.90;;
73776;SDS011;62088;50.240;2.696;2022-10-17T08:36:53;10.77;;;5.20;;
73776;SDS011;62088;50.240;2.696;2022-10-17T08:39:20;8.13;;;4.75;;
73776;SDS011;62088;50.240;2.696;2022-10-17T08:47:10;7.32;;;4.28;;
73776;SDS011;62088;50.240;2.696;2022-10-17T08:49:54;9.10;;;4.38;;
73776;SDS011;62088;50.240;2.696;2022-10-17T08:52:28;7.60;;;3.97;;
73776;SDS011;62088;50.240;2.696;2022-10-17T08:54:58;9.70;;;4.30;;
73776;SDS011;62088;50.240;2.696;2022-10-17T08:57:25;8.68;;;3.80;;
73776;SDS011;62088;50.240;2.696;2022-10-17T08:59:54;8.07;;;4.35;;
73776;SDS011;62088;50.240;2.696;2022-10-17T09:07:40;7.07;;;4.93;;
73776;SDS011;62088;50.240;2.696;2022-10-17T09:10:49;9.60;;;5.13;;
73776;SDS011;62088;50.240;2.696;2022-10-17T09:13:54;8.35;;;5.07;;
73776;SDS011;62088;50.240;2.696;2022-10-17T09:19:30;7.43;;;5.10;;
73776;SDS011;62088;50.240;2.696;2022-10-17T09:22:02;10.75;;;5.60;;
73776;SDS011;62088;50.240;2.696;2022-10-17T09:24:48;9.95;;;5.15;;
73776;SDS011;62088;50.240;2.696;2022-10-17T09:33:14;13.18;;;6.90;;
73776;SDS011;62088;50.240;2.696;2022-10-17T09:36:02;10.18;;;6.85;;
73776;SDS011;62088;50.240;2.696;2022-10-17T09:38:38;16.20;;;7.77;;
73776;SDS011;62088;50.240;2.696;2022-10-17T09:41:15;9.23;;;5.63;;
73776;SDS011;62088;50.240;2.696;2022-10-17T09:44:29;9.48;;;4.63;;
73776;SDS011;62088;50.240;2.696;2022-10-17T09:49:52;8.48;;;4.03;;
73776;SDS011;62088;50.240;2.696;2022-10-17T09:52:41;8.82;;;3.47;;
73776;SDS011;62088;50.240;2.696;2022-10-17T09:55:17;10.02;;;3.58;;
73776;SDS011;62088;50.240;2.696;2022-10-17T09:57:54;11.80;;;3.38;;
73776;SDS011;62088;50.240;2.696;2022-10-17T10:00:32;7.50;;;3.40;;
73776;SDS011;62088;50.240;2.696;2022-10-17T10:05:37;9.18;;;3.40;;
73776;SDS011;62088;50.240;2.696;2022-10-17T10:08:09;8.50;;;3.00;;
73776;SDS011;62088;50.240;2.696;2022-10-17T10:10:42;7.93;;;2.67;;
73776;SDS011;62088;50.240;2.696;2022-10-17T10:15:41;5.25;;;2.45;;
73776;SDS011;62088;50.240;2.696;2022-10-17T10:21:05;4.97;;;2.30;;
73776;SDS011;62088;50.240;2.696;2022-10-17T10:23:43;5.65;;;2.53;;
73776;SDS011;62088;50.240;2.696;2022-10-17T10:26:22;6.50;;;2.50;;
73776;SDS011;62088;50.240;2.696;2022-10-17T10:28:55;7.72;;;2.58;;
73776;SDS011;62088;50.240;2.696;2022-10-17T10:31:26;10.27;;;3.03;;
73776;SDS011;62088;50.240;2.696;2022-10-17T10:33:56;6.80;;;2.80;;
73776;SDS011;62088;50.240;2.696;2022-10-17T10:36:40;8.20;;;2.67;;
73776;SDS011;62088;50.240;2.696;2022-10-17T10:39:27;8.15;;;2.55;;
73776;SDS011;62088;50.240;2.696;2022-10-17T10:42:04;6.18;;;2.75;;
73776;SDS011;62088;50.240;2.696;2022-10-17T10:44:33;5.65;;;3.22;;
73776;SDS011;62088;50.240;2.696;2022-10-17T10:49:33;10.43;;;3.10;;
73776;SDS011;62088;50.240;2.696;2022-10-17T10:52:00;6.30;;;2.25;;
73776;SDS011;62088;50.240;2.696;2022-10-17T10:54:36;5.55;;;2.30;;
73776;SDS011;62088;50.240;2.696;2022-10-17T10:57:09;7.50;;;2.42;;
73776;SDS011;62088;50.240;2.696;2022-10-17T11:02:35;10.98;;;2.45;;
73776;SDS011;62088;50.240;2.696;2022-10-17T11:08:19;5.78;;;2.33;;
73776;SDS011;62088;50.240;2.696;2022-10-17T11:11:03;4.82;;;2.67;;
73776;SDS011;62088;50.240;2.696;2022-10-17T11:13:57;8.20;;;2.70;;
73776;SDS011;62088;50.240;2.696;2022-10-17T11:16:42;4.30;;;2.40;;
73776;SDS011;62088;50.240;2.696;2022-10-17T11:19:35;6.93;;;2.72;;
73776;SDS011;62088;50.240;2.696;2022-10-17T11:22:51;5.97;;;2.85;;
73776;SDS011;62088;50.240;2.696;2022-10-17T11:27:50;9.30;;;2.67;;
73776;SDS011;62088;50.240;2.696;2022-10-17T11:30:17;5.88;;;2.20;;
73776;SDS011;62088;50.240;2.696;2022-10-17T11:35:16;5.72;;;2.20;;
73776;SDS011;62088;50.240;2.696;2022-10-17T11:37:50;5.20;;;2.40;;
73776;SDS011;62088;50.240;2.696;2022-10-17T11:43:02;7.55;;;2.72;;
73776;SDS011;62088;50.240;2.696;2022-10-17T11:45:38;7.07;;;2.97;;
73776;SDS011;62088;50.240;2.696;2022-10-17T11:48:12;6.23;;;3.10;;
73776;SDS011;62088;50.240;2.696;2022-10-17T11:50:48;5.70;;;3.10;;
73776;SDS011;62088;50.240;2.696;2022-10-17T11:53:46;7.47;;;3.33;;
73776;SDS011;62088;50.240;2.696;2022-10-17T11:56:33;7.22;;;3.10;;
73776;SDS011;62088;50.240;2.696;2022-10-17T12:05:04;5.88;;;2.42;;
73776;SDS011;62088;50.240;2.696;2022-10-17T12:10:18;9.48;;;3.22;;
73776;SDS011;62088;50.240;2.696;2022-10-17T12:12:56;10.07;;;2.60;;
73776;SDS011;62088;50.240;2.696;2022-10-17T12:16:41;7.30;;;2.55;;
73776;SDS011;62088;50.240;2.696;2022-10-17T12:18:46;4.90;;;2.38;;
73776;SDS011;62088;50.240;2.696;2022-10-17T12:24:33;9.55;;;2.55;;
73776;SDS011;62088;50.240;2.696;2022-10-17T12:27:23;4.20;;;2.20;;
73776;SDS011;62088;50.240;2.696;2022-10-17T12:35:33;5.15;;;2.40;;
73776;SDS011;62088;50.240;2.696;2022-10-17T12:38:12;7.03;;;2.60;;
73776;SDS011;62088;50.240;2.696;2022-10-17T12:56:43;5.15;;;2.13;;
73776;SDS011;62088;50.240;2.696;2022-10-17T13:01:48;7.18;;;2.42;;
73776;SDS011;62088;50.240;2.696;2022-10-17T13:04:22;5.53;;;2.63;;
73776;SDS011;62088;50.240;2.696;2022-10-17T13:06:53;7.43;;;2.67;;
73776;SDS011;62088;50.240;2.696;2022-10-17T13:09:32;5.78;;;2.17;;
73776;SDS011;62088;50.240;2.696;2022-10-17T13:12:04;6.60;;;2.60;;
73776;SDS011;62088;50.240;2.696;2022-10-17T13:14:49;5.35;;;2.30;;
73776;SDS011;62088;50.240;2.696;2022-10-17T13:17:25;6.35;;;2.10;;
73776;SDS011;62088;50.240;2.696;2022-10-17T13:19:55;4.20;;;2.10;;
73776;SDS011;62088;50.240;2.696;2022-10-17T13:22:23;4.30;;;2.20;;
73776;SDS011;62088;50.240;2.696;2022-10-17T13:25:13;5.20;;;2.13;;
73776;SDS011;62088;50.240;2.696;2022-10-17T13:27:42;6.72;;;2.80;;
73776;SDS011;62088;50.240;2.696;2022-10-17T13:32:58;4.88;;;2.78;;
73776;SDS011;62088;50.240;2.696;2022-10-17T13:35:30;12.50;;;2.65;;
73776;SDS011;62088;50.240;2.696;2022-10-17T13:38:25;5.55;;;2.47;;
73776;SDS011;62088;50.240;2.696;2022-10-17T13:40:54;6.28;;;2.50;;
73776;SDS011;62088;50.240;2.696;2022-10-17T13:43:42;7.07;;;2.72;;
73776;SDS011;62088;50.240;2.696;2022-10-17T13:46:16;7.50;;;2.72;;
73776;SDS011;62088;50.240;2.696;2022-10-17T13:52:05;6.13;;;2.28;;
73776;SDS011;62088;50.240;2.696;2022-10-17T13:54:43;7.32;;;2.40;;
73776;SDS011;62088;50.240;2.696;2022-10-17T13:57:17;4.70;;;2.15;;
73776;SDS011;62088;50.240;2.696;2022-10-17T13:59:44;6.82;;;2.25;;
73776;SDS011;62088;50.240;2.696;2022-10-17T14:02:22;5.05;;;2.30;;
73776;SDS011;62088;50.240;2.696;2022-10-17T14:07:44;8.38;;;2.35;;
73776;SDS011;62088;50.240;2.696;2022-10-17T14:10:33;6.22;;;2.20;;
73776;SDS011;62088;50.240;2.696;2022-10-17T14:13:03;4.50;;;1.95;;
73776;SDS011;62088;50.240;2.696;2022-10-17T14:15:34;10.45;;;2.88;;
73776;SDS011;62088;50.240;2.696;2022-10-17T14:18:03;5.82;;;2.13;;
73776;SDS011;62088;50.240;2.696;2022-10-17T14:20:34;5.45;;;2.03;;
73776;SDS011;62088;50.240;2.696;2022-10-17T14:23:40;5.30;;;1.92;;
73776;SDS011;62088;50.240;2.696;2022-10-17T14:26:10;6.47;;;2.40;;
73776;SDS011;62088;50.240;2.696;2022-10-17T14:28:41;9.60;;;2.50;;
73776;SDS011;62088;50.240;2.696;2022-10-17T14:31:21;6.05;;;2.10;;
73776;SDS011;62088;50.240;2.696;2022-10-17T14:33:51;5.43;;;2.30;;
73776;SDS011;62088;50.240;2.696;2022-10-17T14:36:19;5.45;;;2.55;;
73776;SDS011;62088;50.240;2.696;2022-10-17T14:38:56;11.68;;;2.85;;
73776;SDS011;62088;50.240;2.696;2022-10-17T14:41:27;6.47;;;2.25;;
73776;SDS011;62088;50.240;2.696;2022-10-17T14:44:19;5.70;;;2.30;;
73776;SDS011;62088;50.240;2.696;2022-10-17T14:46:56;4.63;;;2.30;;
73776;SDS011;62088;50.240;2.696;2022-10-17T14:49:36;4.85;;;2.38;;
73776;SDS011;62088;50.240;2.696;2022-10-17T14:54:44;5.07;;;2.35;;
73776;SDS011;62088;50.240;2.696;2022-10-17T14:57:56;9.10;;;2.90;;
73776;SDS011;62088;50.240;2.696;2022-10-17T15:00:12;6.30;;;2.40;;
73776;SDS011;62088;50.240;2.696;2022-10-17T15:02:40;6.10;;;3.90;;
73776;SDS011;62088;50.240;2.696;2022-10-17T15:05:07;19.60;;;16.33;;
73776;SDS011;62088;50.240;2.696;2022-10-17T15:07:38;10.93;;;8.63;;
73776;SDS011;62088;50.240;2.696;2022-10-17T15:10:15;9.80;;;6.43;;
73776;SDS011;62088;50.240;2.696;2022-10-17T15:12:59;7.05;;;3.88;;
73776;SDS011;62088;50.240;2.696;2022-10-17T15:15:47;7.57;;;3.60;;
73776;SDS011;62088;50.240;2.696;2022-10-17T15:18:17;7.30;;;3.05;;
73776;SDS011;62088;50.240;2.696;2022-10-17T15:20:44;10.60;;;3.10;;
73776;SDS011;62088;50.240;2.696;2022-10-17T15:23:11;9.73;;;3.15;;
73776;SDS011;62088;50.240;2.696;2022-10-17T15:25:38;6.53;;;3.22;;
73776;SDS011;62088;50.240;2.696;2022-10-17T15:28:05;8.60;;;2.47;;
73776;SDS011;62088;50.240;2.696;2022-10-17T15:30:34;5.55;;;2.42;;
73776;SDS011;62088;50.240;2.696;2022-10-17T15:33:01;4.68;;;2.10;;
73776;SDS011;62088;50.240;2.696;2022-10-17T15:35:28;5.85;;;2.45;;
73776;SDS011;62088;50.240;2.696;2022-10-17T15:37:56;9.70;;;2.72;;
73776;SDS011;62088;50.240;2.696;2022-10-17T15:40:27;10.02;;;2.60;;
73776;SDS011;62088;50.240;2.696;2022-10-17T15:42:55;5.97;;;2.63;;
73776;SDS011;62088;50.240;2.696;2022-10-17T15:45:22;5.65;;;2.30;;
73776;SDS011;62088;50.240;2.696;2022-10-17T15:47:53;7.55;;;2.63;;
73776;SDS011;62088;50.240;2.696;2022-10-17T15:50:23;10.85;;;3.08;;
73776;SDS011;62088;50.240;2.696;2022-10-17T15:52:50;8.63;;;3.88;;
73776;SDS011;62088;50.240;2.696;2022-10-17T15:55:18;10.00;;;3.58;;
73776;SDS011;62088;50.240;2.696;2022-10-17T15:57:45;6.03;;;3.65;;
73776;SDS011;62088;50.240;2.696;2022-10-17T16:00:21;8.18;;;3.22;;
73776;SDS011;62088;50.240;2.696;2022-10-17T16:02:50;7.05;;;3.15;;
73776;SDS011;62088;50.240;2.696;2022-10-17T16:05:18;6.50;;;3.28;;
73776;SDS011;62088;50.240;2.696;2022-10-17T16:07:49;6.88;;;2.60;;
73776;SDS011;62088;50.240;2.696;2022-10-17T16:10:17;9.20;;;2.75;;
73776;SDS011;62088;50.240;2.696;2022-10-17T16:12:45;5.65;;;2.85;;
73776;SDS011;62088;50.240;2.696;2022-10-17T16:15:16;8.65;;;2.80;;
73776;SDS011;62088;50.240;2.696;2022-10-17T16:17:45;9.10;;;2.80;;
73776;SDS011;62088;50.240;2.696;2022-10-17T16:20:12;7.57;;;2.83;;
73776;SDS011;62088;50.240;2.696;2022-10-17T16:22:39;7.63;;;2.88;;
73776;SDS011;62088;50.240;2.696;2022-10-17T16:25:16;10.82;;;2.60;;
73776;SDS011;62088;50.240;2.696;2022-10-17T16:27:45;6.47;;;2.53;;
73776;SDS011;62088;50.240;2.696;2022-10-17T16:30:13;12.18;;;2.38;;
73776;SDS011;62088;50.240;2.696;2022-10-17T16:32:40;8.38;;;2.97;;
73776;SDS011;62088;50.240;2.696;2022-10-17T16:35:08;7.10;;;2.50;;
73776;SDS011;62088;50.240;2.696;2022-10-17T16:37:36;9.43;;;2.90;;
73776;SDS011;62088;50.240;2.696;2022-10-17T16:40:03;7.00;;;3.47;;
73776;SDS011;62088;50.240;2.696;2022-10-17T16:42:31;6.20;;;2.75;;
73776;SDS011;62088;50.240;2.696;2022-10-17T16:44:58;6.78;;;2.78;;
73776;SDS011;62088;50.240;2.696;2022-10-17T16:47:25;6.13;;;2.75;;
73776;SDS011;62088;50.240;2.696;2022-10-17T16:49:52;8.77;;;2.95;;
73776;SDS011;62088;50.240;2.696;2022-10-17T16:52:19;10.68;;;2.88;;
73776;SDS011;62088;50.240;2.696;2022-10-17T16:54:46;7.75;;;3.42;;
73776;SDS011;62088;50.240;2.696;2022-10-17T16:57:13;8.90;;;3.90;;
73776;SDS011;62088;50.240;2.696;2022-10-17T16:59:41;5.57;;;3.13;;
73776;SDS011;62088;50.240;2.696;2022-10-17T17:02:09;8.63;;;3.30;;
73776;SDS011;62088;50.240;2.696;2022-10-17T17:04:37;7.47;;;3.30;;
73776;SDS011;62088;50.240;2.696;2022-10-17T17:07:04;12.18;;;3.53;;
73776;SDS011;62088;50.240;2.696;2022-10-17T17:09:31;12.73;;;3.60;;
73776;SDS011;62088;50.240;2.696;2022-10-17T17:11:58;5.63;;;3.03;;
73776;SDS011;62088;50.240;2.696;2022-10-17T17:14:25;8.23;;;3.45;;
73776;SDS011;62088;50.240;2.696;2022-10-17T17:16:52;8.60;;;3.55;;
73776;SDS011;62088;50.240;2.696;2022-10-17T17:19:19;14.45;;;3.88;;
73776;SDS011;62088;50.240;2.696;2022-10-17T17:21:46;10.18;;;3.42;;
73776;SDS011;62088;50.240;2.696;2022-10-17T17:24:16;8.95;;;3.50;;